sensor_id;sensor_type;location;lat;lon;timestamp;P1;durP1;ratioP1;P2;durP2;ratioP2
55170;SDS011;41060;47.510;8.680;2024-02-15T00:01:36;3.42;;;1.50;;
55170;SDS011;41060;47.510;8.680;2024-02-15T00:04:18;3.58;;;1.92;;
55170;SDS011;41060;47.510;8.680;2024-02-15T00:07:00;2.95;;;1.35;;
55170;SDS011;41060;47.510;8.680;2024-02-15T00:09:42;4.50;;;1.55;;
55170;SDS011;41060;47.510;8.680;2024-02-15T00:12:23;5.53;;;2.03;;
55170;SDS011;41060;47.510;8.680;2024-02-15T00:15:05;2.10;;;1.65;;
55170;SDS011;41060;47.510;8.680;2024-02-15T00:17:48;1.52;;;1.00;;
55170;SDS011;41060;47.510;8.680;2024-02-15T00:20:30;3.65;;;1.45;;
55170;SDS011;41060;47.510;8.680;2024-02-15T00:23:13;3.40;;;1.45;;
55170;SDS011;41060;47.510;8.680;2024-02-15T00:25:56;2.50;;;1.13;;
55170;SDS011;41060;47.510;8.680;2024-02-15T00:28:38;4.13;;;1.60;;
55170;SDS011;41060;47.510;8.680;2024-02-15T00:31:19;5.95;;;1.63;;
55170;SDS011;41060;47.510;8.680;2024-02-15T00:34:07;2.88;;;1.23;;
55170;SDS011;41060;47.510;8.680;2024-02-15T00:36:49;2.22;;;1.33;;
55170;SDS011;41060;47.510;8.680;2024-02-15T00:39:31;2.97;;;1.40;;
55170;SDS011;41060;47.510;8.680;2024-02-15T00:42:13;2.60;;;1.20;;
55170;SDS011;41060;47.510;8.680;2024-02-15T00:44:55;3.47;;;1.60;;
55170;SDS011;41060;47.510;8.680;2024-02-15T00:47:37;2.47;;;1.05;;
55170;SDS011;41060;47.510;8.680;2024-02-15T00:50:23;2.65;;;1.10;;
55170;SDS011;41060;47.510;8.680;2024-02-15T00:53:04;2.28;;;1.25;;
55170;SDS011;41060;47.510;8.680;2024-02-15T00:55:46;3.42;;;1.52;;
55170;SDS011;41060;47.510;8.680;2024-02-15T00:58:28;3.53;;;1.48;;
55170;SDS011;41060;47.510;8.680;2024-02-15T01:01:09;2.50;;;1.90;;
55170;SDS011;41060;47.510;8.680;2024-02-15T01:03:51;3.40;;;1.63;;
55170;SDS011;41060;47.510;8.680;2024-02-15T01:06:34;2.92;;;1.73;;
55170;SDS011;41060;47.510;8.680;2024-02-15T01:09:23;2.05;;;1.30;;
55170;SDS011;41060;47.510;8.680;2024-02-15T01:12:05;2.53;;;1.35;;
55170;SDS011;41060;47.510;8.680;2024-02-15T01:14:46;2.85;;;1.35;;
55170;SDS011;41060;47.510;8.680;2024-02-15T01:17:28;2.65;;;1.27;;
55170;SDS011;41060;47.510;8.680;2024-02-15T01:20:10;7.57;;;1.70;;
55170;SDS011;41060;47.510;8.680;2024-02-15T01:22:56;4.25;;;1.27;;
55170;SDS011;41060;47.510;8.680;2024-02-15T01:25:37;2.10;;;1.17;;
55170;SDS011;41060;47.510;8.680;2024-02-15T01:28:20;3.08;;;1.10;;
55170;SDS011;41060;47.510;8.680;2024-02-15T01:31:02;2.28;;;1.15;;
55170;SDS011;41060;47.510;8.680;2024-02-15T01:33:43;7.32;;;1.70;;
55170;SDS011;41060;47.510;8.680;2024-02-15T01:36:25;5.10;;;1.45;;
55170;SDS011;41060;47.510;8.680;2024-02-15T01:39:08;2.05;;;1.13;;
55170;SDS011;41060;47.510;8.680;2024-02-15T01:41:50;1.55;;;1.27;;
55170;SDS011;41060;47.510;8.680;2024-02-15T01:44:35;1.85;;;1.15;;
55170;SDS011;41060;47.510;8.680;2024-02-15T01:47:19;1.67;;;0.93;;
55170;SDS011;41060;47.510;8.680;2024-02-15T01:50:02;3.17;;;1.25;;
55170;SDS011;41060;47.510;8.680;2024-02-15T01:52:44;2.90;;;1.20;;
55170;SDS011;41060;47.510;8.680;2024-02-15T01:55:31;3.53;;;1.23;;
55170;SDS011;41060;47.510;8.680;2024-02-15T01:58:13;2.03;;;1.25;;
55170;SDS011;41060;47.510;8.680;2024-02-15T02:00:55;2.33;;;1.40;;
55170;SDS011;41060;47.510;8.680;2024-02-15T02:03:39;2.40;;;1.30;;
55170;SDS011;41060;47.510;8.680;2024-02-15T02:06:21;2.20;;;1.48;;
55170;SDS011;41060;47.510;8.680;2024-02-15T02:09:04;2.63;;;1.10;;
55170;SDS011;41060;47.510;8.680;2024-02-15T02:11:47;5.13;;;1.30;;
55170;SDS011;41060;47.510;8.680;2024-02-15T02:14:30;2.45;;;1.20;;
55170;SDS011;41060;47.510;8.680;2024-02-15T02:17:12;4.40;;;1.35;;
55170;SDS011;41060;47.510;8.680;2024-02-15T02:19:54;4.97;;;1.55;;
55170;SDS011;41060;47.510;8.680;2024-02-15T02:22:37;1.63;;;0.98;;
55170;SDS011;41060;47.510;8.680;2024-02-15T02:25:20;3.20;;;1.20;;
55170;SDS011;41060;47.510;8.680;2024-02-15T02:28:02;2.92;;;1.35;;
55170;SDS011;41060;47.510;8.680;2024-02-15T02:30:47;5.00;;;1.38;;
55170;SDS011;41060;47.510;8.680;2024-02-15T02:33:29;2.75;;;1.20;;
55170;SDS011;41060;47.510;8.680;2024-02-15T02:36:11;1.13;;;0.93;;
55170;SDS011;41060;47.510;8.680;2024-02-15T02:38:52;2.17;;;0.93;;
55170;SDS011;41060;47.510;8.680;2024-02-15T02:41:39;1.88;;;1.35;;
55170;SDS011;41060;47.510;8.680;2024-02-15T02:44:24;4.22;;;1.23;;
55170;SDS011;41060;47.510;8.680;2024-02-15T02:47:10;3.83;;;1.58;;
55170;SDS011;41060;47.510;8.680;2024-02-15T02:49:55;1.17;;;0.93;;
55170;SDS011;41060;47.510;8.680;2024-02-15T02:52:41;2.35;;;1.17;;
55170;SDS011;41060;47.510;8.680;2024-02-15T02:55:26;1.92;;;1.00;;
55170;SDS011;41060;47.510;8.680;2024-02-15T02:58:13;2.05;;;0.90;;
55170;SDS011;41060;47.510;8.680;2024-02-15T03:00:58;7.13;;;1.20;;
55170;SDS011;41060;47.510;8.680;2024-02-15T03:03:45;3.40;;;1.30;;
55170;SDS011;41060;47.510;8.680;2024-02-15T03:06:31;1.67;;;1.00;;
55170;SDS011;41060;47.510;8.680;2024-02-15T03:09:16;3.53;;;1.10;;
55170;SDS011;41060;47.510;8.680;2024-02-15T03:12:01;4.78;;;1.50;;
55170;SDS011;41060;47.510;8.680;2024-02-15T03:14:48;3.53;;;1.38;;
55170;SDS011;41060;47.510;8.680;2024-02-15T03:17:33;2.58;;;1.10;;
55170;SDS011;41060;47.510;8.680;2024-02-15T03:20:19;1.80;;;1.10;;
55170;SDS011;41060;47.510;8.680;2024-02-15T03:23:08;2.25;;;1.20;;
55170;SDS011;41060;47.510;8.680;2024-02-15T03:25:53;1.75;;;1.60;;
55170;SDS011;41060;47.510;8.680;2024-02-15T03:28:39;2.45;;;1.27;;
55170;SDS011;41060;47.510;8.680;2024-02-15T03:31:29;2.13;;;1.10;;
55170;SDS011;41060;47.510;8.680;2024-02-15T03:34:15;2.65;;;1.20;;
55170;SDS011;41060;47.510;8.680;2024-02-15T03:37:00;2.72;;;1.23;;
55170;SDS011;41060;47.510;8.680;2024-02-15T03:39:48;1.83;;;1.02;;
55170;SDS011;41060;47.510;8.680;2024-02-15T03:42:33;2.05;;;0.93;;
55170;SDS011;41060;47.510;8.680;2024-02-15T03:45:20;3.60;;;1.10;;
55170;SDS011;41060;47.510;8.680;2024-02-15T03:48:10;1.52;;;0.90;;
55170;SDS011;41060;47.510;8.680;2024-02-15T03:50:56;2.63;;;1.05;;
55170;SDS011;41060;47.510;8.680;2024-02-15T03:53:42;5.25;;;1.58;;
55170;SDS011;41060;47.510;8.680;2024-02-15T03:56:27;2.10;;;1.20;;
55170;SDS011;41060;47.510;8.680;2024-02-15T03:59:13;2.65;;;1.20;;
55170;SDS011;41060;47.510;8.680;2024-02-15T04:01:58;1.95;;;0.98;;
55170;SDS011;41060;47.510;8.680;2024-02-15T04:04:45;3.17;;;1.48;;
55170;SDS011;41060;47.510;8.680;2024-02-15T04:07:32;3.33;;;1.40;;
55170;SDS011;41060;47.510;8.680;2024-02-15T04:10:18;1.90;;;1.10;;
55170;SDS011;41060;47.510;8.680;2024-02-15T04:13:03;3.70;;;1.45;;
55170;SDS011;41060;47.510;8.680;2024-02-15T04:15:49;3.13;;;1.38;;
55170;SDS011;41060;47.510;8.680;2024-02-15T04:18:36;2.13;;;1.48;;
55170;SDS011;41060;47.510;8.680;2024-02-15T04:21:23;4.72;;;1.77;;
55170;SDS011;41060;47.510;8.680;2024-02-15T04:24:09;2.72;;;1.42;;
55170;SDS011;41060;47.510;8.680;2024-02-15T04:26:54;3.13;;;1.50;;
55170;SDS011;41060;47.510;8.680;2024-02-15T04:29:39;2.22;;;1.20;;
55170;SDS011;41060;47.510;8.680;2024-02-15T04:32:28;4.40;;;1.02;;
55170;SDS011;41060;47.510;8.680;2024-02-15T04:35:17;3.65;;;1.27;;
55170;SDS011;41060;47.510;8.680;2024-02-15T04:38:04;1.65;;;0.90;;
55170;SDS011;41060;47.510;8.680;2024-02-15T04:40:52;2.35;;;1.20;;
55170;SDS011;41060;47.510;8.680;2024-02-15T04:43:40;1.58;;;1.20;;
55170;SDS011;41060;47.510;8.680;2024-02-15T04:46:28;3.10;;;1.40;;
55170;SDS011;41060;47.510;8.680;2024-02-15T04:48:55;2.33;;;1.52;;
55170;SDS011;41060;47.510;8.680;2024-02-15T04:51:23;1.83;;;1.10;;
55170;SDS011;41060;47.510;8.680;2024-02-15T04:53:54;2.90;;;1.30;;
55170;SDS011;41060;47.510;8.680;2024-02-15T04:56:23;3.03;;;1.50;;
55170;SDS011;41060;47.510;8.680;2024-02-15T04:58:50;3.65;;;1.63;;
55170;SDS011;41060;47.510;8.680;2024-02-15T05:01:16;2.05;;;1.10;;
55170;SDS011;41060;47.510;8.680;2024-02-15T05:03:44;2.17;;;1.25;;
55170;SDS011;41060;47.510;8.680;2024-02-15T05:06:11;2.97;;;1.13;;
55170;SDS011;41060;47.510;8.680;2024-02-15T05:08:39;2.90;;;1.42;;
55170;SDS011;41060;47.510;8.680;2024-02-15T05:11:11;6.18;;;1.55;;
55170;SDS011;41060;47.510;8.680;2024-02-15T05:13:42;4.38;;;1.42;;
55170;SDS011;41060;47.510;8.680;2024-02-15T05:16:10;2.25;;;1.23;;
55170;SDS011;41060;47.510;8.680;2024-02-15T05:18:41;4.10;;;1.13;;
55170;SDS011;41060;47.510;8.680;2024-02-15T05:21:08;3.35;;;1.50;;
55170;SDS011;41060;47.510;8.680;2024-02-15T05:23:36;3.15;;;1.58;;
55170;SDS011;41060;47.510;8.680;2024-02-15T05:26:04;4.88;;;1.40;;
55170;SDS011;41060;47.510;8.680;2024-02-15T05:28:33;3.20;;;1.48;;
55170;SDS011;41060;47.510;8.680;2024-02-15T05:31:11;2.75;;;1.27;;
55170;SDS011;41060;47.510;8.680;2024-02-15T05:33:41;5.10;;;1.58;;
55170;SDS011;41060;47.510;8.680;2024-02-15T05:36:10;3.33;;;1.45;;
55170;SDS011;41060;47.510;8.680;2024-02-15T05:38:37;2.63;;;1.40;;
55170;SDS011;41060;47.510;8.680;2024-02-15T05:41:03;2.95;;;1.52;;
55170;SDS011;41060;47.510;8.680;2024-02-15T05:43:34;2.90;;;1.00;;
55170;SDS011;41060;47.510;8.680;2024-02-15T05:46:01;2.28;;;1.33;;
55170;SDS011;41060;47.510;8.680;2024-02-15T05:48:28;2.40;;;1.38;;
55170;SDS011;41060;47.510;8.680;2024-02-15T05:50:55;5.55;;;2.05;;
55170;SDS011;41060;47.510;8.680;2024-02-15T05:53:24;2.45;;;1.00;;
55170;SDS011;41060;47.510;8.680;2024-02-15T05:55:58;1.05;;;0.80;;
55170;SDS011;41060;47.510;8.680;2024-02-15T05:58:25;2.00;;;0.95;;
55170;SDS011;41060;47.510;8.680;2024-02-15T06:00:53;2.05;;;1.15;;
55170;SDS011;41060;47.510;8.680;2024-02-15T06:03:20;3.58;;;1.42;;
55170;SDS011;41060;47.510;8.680;2024-02-15T06:05:48;2.00;;;1.35;;
55170;SDS011;41060;47.510;8.680;2024-02-15T06:08:15;4.15;;;1.35;;
55170;SDS011;41060;47.510;8.680;2024-02-15T06:10:42;3.97;;;1.75;;
55170;SDS011;41060;47.510;8.680;2024-02-15T06:13:10;1.50;;;0.90;;
55170;SDS011;41060;47.510;8.680;2024-02-15T06:15:36;1.42;;;0.88;;
55170;SDS011;41060;47.510;8.680;2024-02-15T06:18:04;1.92;;;1.30;;
55170;SDS011;41060;47.510;8.680;2024-02-15T06:20:34;2.97;;;1.23;;
55170;SDS011;41060;47.510;8.680;2024-02-15T06:23:01;1.98;;;1.60;;
55170;SDS011;41060;47.510;8.680;2024-02-15T06:25:31;3.05;;;1.55;;
55170;SDS011;41060;47.510;8.680;2024-02-15T06:27:59;6.28;;;1.50;;
55170;SDS011;41060;47.510;8.680;2024-02-15T06:30:27;1.83;;;1.15;;
55170;SDS011;41060;47.510;8.680;2024-02-15T06:33:14;1.80;;;1.25;;
55170;SDS011;41060;47.510;8.680;2024-02-15T06:35:58;3.47;;;1.27;;
55170;SDS011;41060;47.510;8.680;2024-02-15T06:38:43;3.05;;;1.50;;
55170;SDS011;41060;47.510;8.680;2024-02-15T06:41:27;2.65;;;0.93;;
55170;SDS011;41060;47.510;8.680;2024-02-15T06:43:55;2.42;;;1.33;;
55170;SDS011;41060;47.510;8.680;2024-02-15T06:46:22;1.67;;;1.25;;
55170;SDS011;41060;47.510;8.680;2024-02-15T06:48:50;4.70;;;1.38;;
55170;SDS011;41060;47.510;8.680;2024-02-15T06:51:18;5.93;;;2.67;;
55170;SDS011;41060;47.510;8.680;2024-02-15T06:53:45;5.10;;;1.52;;
55170;SDS011;41060;47.510;8.680;2024-02-15T06:56:12;5.53;;;1.25;;
55170;SDS011;41060;47.510;8.680;2024-02-15T06:58:39;3.00;;;0.95;;
55170;SDS011;41060;47.510;8.680;2024-02-15T07:01:06;4.68;;;0.98;;
55170;SDS011;41060;47.510;8.680;2024-02-15T07:03:33;1.38;;;0.85;;
55170;SDS011;41060;47.510;8.680;2024-02-15T07:06:02;1.98;;;1.08;;
55170;SDS011;41060;47.510;8.680;2024-02-15T07:08:29;4.43;;;1.85;;
55170;SDS011;41060;47.510;8.680;2024-02-15T07:10:57;2.78;;;1.58;;
55170;SDS011;41060;47.510;8.680;2024-02-15T07:13:24;4.57;;;1.48;;
55170;SDS011;41060;47.510;8.680;2024-02-15T07:15:51;5.20;;;1.70;;
55170;SDS011;41060;47.510;8.680;2024-02-15T07:18:18;2.83;;;1.58;;
55170;SDS011;41060;47.510;8.680;2024-02-15T07:20:46;2.60;;;1.40;;
55170;SDS011;41060;47.510;8.680;2024-02-15T07:23:14;7.75;;;1.85;;
55170;SDS011;41060;47.510;8.680;2024-02-15T07:25:41;1.63;;;1.05;;
55170;SDS011;41060;47.510;8.680;2024-02-15T07:28:08;1.30;;;1.02;;
55170;SDS011;41060;47.510;8.680;2024-02-15T07:30:35;4.30;;;1.40;;
55170;SDS011;41060;47.510;8.680;2024-02-15T07:33:03;3.95;;;1.70;;
55170;SDS011;41060;47.510;8.680;2024-02-15T07:35:32;1.77;;;1.10;;
55170;SDS011;41060;47.510;8.680;2024-02-15T07:38:00;2.03;;;1.13;;
55170;SDS011;41060;47.510;8.680;2024-02-15T07:40:28;2.40;;;1.15;;
55170;SDS011;41060;47.510;8.680;2024-02-15T07:42:56;3.10;;;1.13;;
55170;SDS011;41060;47.510;8.680;2024-02-15T07:45:23;2.28;;;1.27;;
55170;SDS011;41060;47.510;8.680;2024-02-15T07:47:50;3.22;;;1.23;;
55170;SDS011;41060;47.510;8.680;2024-02-15T07:50:17;2.63;;;1.60;;
55170;SDS011;41060;47.510;8.680;2024-02-15T07:52:48;4.88;;;1.95;;
55170;SDS011;41060;47.510;8.680;2024-02-15T07:55:16;5.22;;;1.33;;
55170;SDS011;41060;47.510;8.680;2024-02-15T07:57:47;6.32;;;1.80;;
55170;SDS011;41060;47.510;8.680;2024-02-15T08:00:16;2.25;;;1.63;;
55170;SDS011;41060;47.510;8.680;2024-02-15T08:02:44;4.25;;;1.92;;
55170;SDS011;41060;47.510;8.680;2024-02-15T08:05:12;2.22;;;1.30;;
55170;SDS011;41060;47.510;8.680;2024-02-15T08:07:41;4.72;;;1.92;;
55170;SDS011;41060;47.510;8.680;2024-02-15T08:10:09;5.07;;;1.77;;
55170;SDS011;41060;47.510;8.680;2024-02-15T08:12:39;5.35;;;1.60;;
55170;SDS011;41060;47.510;8.680;2024-02-15T08:15:09;5.03;;;2.10;;
55170;SDS011;41060;47.510;8.680;2024-02-15T08:17:38;2.45;;;1.40;;
55170;SDS011;41060;47.510;8.680;2024-02-15T08:20:09;8.27;;;2.15;;
55170;SDS011;41060;47.510;8.680;2024-02-15T08:22:37;3.08;;;1.30;;
55170;SDS011;41060;47.510;8.680;2024-02-15T08:25:06;2.25;;;1.13;;
55170;SDS011;41060;47.510;8.680;2024-02-15T08:27:38;3.90;;;1.25;;
55170;SDS011;41060;47.510;8.680;2024-02-15T08:30:10;6.18;;;1.27;;
55170;SDS011;41060;47.510;8.680;2024-02-15T08:32:38;3.95;;;1.17;;
55170;SDS011;41060;47.510;8.680;2024-02-15T08:35:09;3.03;;;1.40;;
55170;SDS011;41060;47.510;8.680;2024-02-15T08:37:36;2.53;;;1.42;;
55170;SDS011;41060;47.510;8.680;2024-02-15T08:40:04;2.03;;;1.08;;
55170;SDS011;41060;47.510;8.680;2024-02-15T08:42:39;3.58;;;1.35;;
55170;SDS011;41060;47.510;8.680;2024-02-15T08:45:06;3.70;;;1.25;;
55170;SDS011;41060;47.510;8.680;2024-02-15T08:47:37;3.42;;;1.40;;
55170;SDS011;41060;47.510;8.680;2024-02-15T08:50:05;2.75;;;1.40;;
55170;SDS011;41060;47.510;8.680;2024-02-15T08:52:34;2.38;;;1.63;;
55170;SDS011;41060;47.510;8.680;2024-02-15T08:55:03;2.50;;;1.40;;
55170;SDS011;41060;47.510;8.680;2024-02-15T08:57:32;3.08;;;1.67;;
55170;SDS011;41060;47.510;8.680;2024-02-15T08:59:59;1.83;;;1.20;;
55170;SDS011;41060;47.510;8.680;2024-02-15T09:02:29;2.55;;;1.40;;
55170;SDS011;41060;47.510;8.680;2024-02-15T09:04:59;2.83;;;1.40;;
55170;SDS011;41060;47.510;8.680;2024-02-15T09:07:26;4.10;;;1.20;;
55170;SDS011;41060;47.510;8.680;2024-02-15T09:09:52;4.13;;;2.00;;
55170;SDS011;41060;47.510;8.680;2024-02-15T09:12:21;3.03;;;1.95;;
55170;SDS011;41060;47.510;8.680;2024-02-15T09:14:47;3.35;;;2.13;;
55170;SDS011;41060;47.510;8.680;2024-02-15T09:17:14;3.20;;;1.40;;
55170;SDS011;41060;47.510;8.680;2024-02-15T09:19:41;2.67;;;1.67;;
55170;SDS011;41060;47.510;8.680;2024-02-15T09:22:09;3.45;;;1.50;;
55170;SDS011;41060;47.510;8.680;2024-02-15T09:24:36;2.22;;;1.63;;
55170;SDS011;41060;47.510;8.680;2024-02-15T09:27:04;5.65;;;1.50;;
55170;SDS011;41060;47.510;8.680;2024-02-15T09:29:31;4.13;;;1.50;;
55170;SDS011;41060;47.510;8.680;2024-02-15T09:31:58;4.25;;;1.65;;
55170;SDS011;41060;47.510;8.680;2024-02-15T09:34:27;4.30;;;1.88;;
55170;SDS011;41060;47.510;8.680;2024-02-15T09:36:54;3.38;;;1.60;;
55170;SDS011;41060;47.510;8.680;2024-02-15T09:39:23;4.70;;;1.73;;
55170;SDS011;41060;47.510;8.680;2024-02-15T09:41:50;5.82;;;2.22;;
55170;SDS011;41060;47.510;8.680;2024-02-15T09:44:23;3.40;;;2.10;;
55170;SDS011;41060;47.510;8.680;2024-02-15T09:46:55;2.33;;;1.30;;
55170;SDS011;41060;47.510;8.680;2024-02-15T09:49:29;4.53;;;2.30;;
55170;SDS011;41060;47.510;8.680;2024-02-15T09:52:01;3.10;;;1.70;;
55170;SDS011;41060;47.510;8.680;2024-02-15T09:54:30;7.43;;;1.90;;
55170;SDS011;41060;47.510;8.680;2024-02-15T09:56:58;2.53;;;1.70;;
55170;SDS011;41060;47.510;8.680;2024-02-15T09:59:28;4.90;;;2.05;;
55170;SDS011;41060;47.510;8.680;2024-02-15T10:01:56;3.75;;;2.40;;
55170;SDS011;41060;47.510;8.680;2024-02-15T10:04:24;4.35;;;1.88;;
55170;SDS011;41060;47.510;8.680;2024-02-15T10:06:52;1.88;;;1.27;;
55170;SDS011;41060;47.510;8.680;2024-02-15T10:09:25;3.90;;;2.40;;
55170;SDS011;41060;47.510;8.680;2024-02-15T10:11:55;3.08;;;2.00;;
55170;SDS011;41060;47.510;8.680;2024-02-15T10:14:23;3.53;;;2.15;;
55170;SDS011;41060;47.510;8.680;2024-02-15T10:16:51;3.22;;;1.60;;
55170;SDS011;41060;47.510;8.680;2024-02-15T10:19:19;4.88;;;2.08;;
55170;SDS011;41060;47.510;8.680;2024-02-15T10:21:50;3.58;;;2.10;;
55170;SDS011;41060;47.510;8.680;2024-02-15T10:24:18;5.97;;;2.20;;
55170;SDS011;41060;47.510;8.680;2024-02-15T10:26:46;3.67;;;2.13;;
55170;SDS011;41060;47.510;8.680;2024-02-15T10:29:16;3.40;;;2.20;;
55170;SDS011;41060;47.510;8.680;2024-02-15T10:31:51;4.70;;;2.22;;
55170;SDS011;41060;47.510;8.680;2024-02-15T10:34:20;6.72;;;2.55;;
55170;SDS011;41060;47.510;8.680;2024-02-15T10:36:52;5.93;;;2.72;;
55170;SDS011;41060;47.510;8.680;2024-02-15T10:39:22;3.47;;;2.08;;
55170;SDS011;41060;47.510;8.680;2024-02-15T10:41:49;9.35;;;2.40;;
55170;SDS011;41060;47.510;8.680;2024-02-15T10:44:22;3.03;;;2.30;;
55170;SDS011;41060;47.510;8.680;2024-02-15T10:46:52;6.28;;;2.70;;
55170;SDS011;41060;47.510;8.680;2024-02-15T10:49:19;5.00;;;2.42;;
55170;SDS011;41060;47.510;8.680;2024-02-15T10:51:48;4.72;;;2.67;;
55170;SDS011;41060;47.510;8.680;2024-02-15T10:54:21;4.45;;;2.35;;
55170;SDS011;41060;47.510;8.680;2024-02-15T10:57:02;6.05;;;3.15;;
55170;SDS011;41060;47.510;8.680;2024-02-15T10:59:34;5.55;;;2.72;;
55170;SDS011;41060;47.510;8.680;2024-02-15T11:02:04;5.47;;;2.80;;
55170;SDS011;41060;47.510;8.680;2024-02-15T11:04:51;5.43;;;2.72;;
55170;SDS011;41060;47.510;8.680;2024-02-15T11:07:22;4.67;;;2.50;;
55170;SDS011;41060;47.510;8.680;2024-02-15T11:09:52;5.72;;;2.60;;
55170;SDS011;41060;47.510;8.680;2024-02-15T11:12:18;3.40;;;2.38;;
55170;SDS011;41060;47.510;8.680;2024-02-15T11:14:47;8.02;;;3.03;;
55170;SDS011;41060;47.510;8.680;2024-02-15T11:23:25;4.50;;;2.60;;
55170;SDS011;41060;47.510;8.680;2024-02-15T11:26:00;4.28;;;2.10;;
55170;SDS011;41060;47.510;8.680;2024-02-15T11:28:37;4.18;;;3.13;;
55170;SDS011;41060;47.510;8.680;2024-02-15T11:31:10;6.47;;;2.40;;
55170;SDS011;41060;47.510;8.680;2024-02-15T11:33:58;6.10;;;2.85;;
55170;SDS011;41060;47.510;8.680;2024-02-15T11:36:30;6.13;;;2.78;;
55170;SDS011;41060;47.510;8.680;2024-02-15T11:39:00;4.13;;;2.53;;
55170;SDS011;41060;47.510;8.680;2024-02-15T11:41:29;5.00;;;2.67;;
55170;SDS011;41060;47.510;8.680;2024-02-15T11:43:56;6.18;;;2.60;;
55170;SDS011;41060;47.510;8.680;2024-02-15T11:46:25;3.25;;;2.10;;
55170;SDS011;41060;47.510;8.680;2024-02-15T11:48:56;3.53;;;2.30;;
55170;SDS011;41060;47.510;8.680;2024-02-15T11:51:28;5.20;;;2.47;;
55170;SDS011;41060;47.510;8.680;2024-02-15T11:54:02;5.68;;;2.70;;
55170;SDS011;41060;47.510;8.680;2024-02-15T11:59:21;4.90;;;2.45;;
55170;SDS011;41060;47.510;8.680;2024-02-15T12:01:59;6.18;;;2.70;;
55170;SDS011;41060;47.510;8.680;2024-02-15T12:04:43;4.20;;;2.55;;
55170;SDS011;41060;47.510;8.680;2024-02-15T12:07:27;5.38;;;2.50;;
55170;SDS011;41060;47.510;8.680;2024-02-15T12:10:15;4.28;;;2.53;;
55170;SDS011;41060;47.510;8.680;2024-02-15T12:13:00;5.72;;;2.50;;
55170;SDS011;41060;47.510;8.680;2024-02-15T12:18:41;3.80;;;2.92;;
55170;SDS011;41060;47.510;8.680;2024-02-15T12:21:12;4.50;;;2.20;;
55170;SDS011;41060;47.510;8.680;2024-02-15T12:23:42;4.57;;;2.45;;
55170;SDS011;41060;47.510;8.680;2024-02-15T12:26:10;4.15;;;2.70;;
55170;SDS011;41060;47.510;8.680;2024-02-15T12:28:39;3.45;;;2.35;;
55170;SDS011;41060;47.510;8.680;2024-02-15T12:31:08;3.83;;;2.53;;
55170;SDS011;41060;47.510;8.680;2024-02-15T12:33:38;4.60;;;2.55;;
55170;SDS011;41060;47.510;8.680;2024-02-15T12:36:08;5.68;;;2.38;;
55170;SDS011;41060;47.510;8.680;2024-02-15T12:38:36;4.15;;;2.78;;
55170;SDS011;41060;47.510;8.680;2024-02-15T12:41:03;5.03;;;2.97;;
55170;SDS011;41060;47.510;8.680;2024-02-15T12:43:43;4.10;;;2.45;;
55170;SDS011;41060;47.510;8.680;2024-02-15T12:46:10;4.82;;;2.90;;
55170;SDS011;41060;47.510;8.680;2024-02-15T12:48:37;6.50;;;2.97;;
55170;SDS011;41060;47.510;8.680;2024-02-15T12:51:14;5.43;;;2.75;;
55170;SDS011;41060;47.510;8.680;2024-02-15T12:53:41;4.47;;;2.63;;
55170;SDS011;41060;47.510;8.680;2024-02-15T12:56:08;5.15;;;2.95;;
55170;SDS011;41060;47.510;8.680;2024-02-15T12:58:35;4.57;;;2.60;;
55170;SDS011;41060;47.510;8.680;2024-02-15T13:01:04;6.22;;;2.95;;
55170;SDS011;41060;47.510;8.680;2024-02-15T13:03:31;5.15;;;2.90;;
55170;SDS011;41060;47.510;8.680;2024-02-15T13:05:58;5.18;;;3.00;;
55170;SDS011;41060;47.510;8.680;2024-02-15T13:08:26;7.22;;;3.53;;
55170;SDS011;41060;47.510;8.680;2024-02-15T13:10:53;4.68;;;3.42;;
55170;SDS011;41060;47.510;8.680;2024-02-15T13:13:21;6.10;;;3.13;;
55170;SDS011;41060;47.510;8.680;2024-02-15T13:15:48;4.03;;;2.47;;
55170;SDS011;41060;47.510;8.680;2024-02-15T13:18:15;4.93;;;3.03;;
55170;SDS011;41060;47.510;8.680;2024-02-15T13:20:42;5.80;;;2.65;;
55170;SDS011;41060;47.510;8.680;2024-02-15T13:23:10;5.85;;;2.80;;
55170;SDS011;41060;47.510;8.680;2024-02-15T13:25:49;4.53;;;2.95;;
55170;SDS011;41060;47.510;8.680;2024-02-15T13:28:17;5.38;;;2.95;;
55170;SDS011;41060;47.510;8.680;2024-02-15T13:30:45;5.10;;;3.03;;
55170;SDS011;41060;47.510;8.680;2024-02-15T13:33:12;6.47;;;2.63;;
55170;SDS011;41060;47.510;8.680;2024-02-15T13:35:39;6.50;;;2.70;;
55170;SDS011;41060;47.510;8.680;2024-02-15T13:38:06;7.80;;;2.95;;
55170;SDS011;41060;47.510;8.680;2024-02-15T13:40:39;3.92;;;2.95;;
55170;SDS011;41060;47.510;8.680;2024-02-15T13:43:09;5.43;;;2.60;;
55170;SDS011;41060;47.510;8.680;2024-02-15T13:45:38;5.35;;;3.00;;
55170;SDS011;41060;47.510;8.680;2024-02-15T13:48:08;4.45;;;2.70;;
55170;SDS011;41060;47.510;8.680;2024-02-15T13:50:35;6.93;;;3.42;;
55170;SDS011;41060;47.510;8.680;2024-02-15T13:53:03;5.72;;;2.95;;
55170;SDS011;41060;47.510;8.680;2024-02-15T13:55:31;6.43;;;2.70;;
55170;SDS011;41060;47.510;8.680;2024-02-15T13:57:57;3.78;;;2.65;;
55170;SDS011;41060;47.510;8.680;2024-02-15T14:00:26;7.60;;;3.55;;
55170;SDS011;41060;47.510;8.680;2024-02-15T14:02:57;8.77;;;3.47;;
55170;SDS011;41060;47.510;8.680;2024-02-15T14:05:25;4.30;;;2.53;;
55170;SDS011;41060;47.510;8.680;2024-02-15T14:07:55;5.72;;;3.03;;
55170;SDS011;41060;47.510;8.680;2024-02-15T14:10:23;6.75;;;3.42;;
55170;SDS011;41060;47.510;8.680;2024-02-15T14:12:52;4.18;;;2.83;;
55170;SDS011;41060;47.510;8.680;2024-02-15T14:15:20;5.90;;;2.92;;
55170;SDS011;41060;47.510;8.680;2024-02-15T14:17:49;5.93;;;3.22;;
55170;SDS011;41060;47.510;8.680;2024-02-15T14:20:15;4.82;;;2.72;;
55170;SDS011;41060;47.510;8.680;2024-02-15T14:22:44;4.25;;;2.72;;
55170;SDS011;41060;47.510;8.680;2024-02-15T14:25:14;4.63;;;3.05;;
55170;SDS011;41060;47.510;8.680;2024-02-15T14:27:41;4.43;;;2.90;;
55170;SDS011;41060;47.510;8.680;2024-02-15T14:30:08;5.35;;;2.88;;
55170;SDS011;41060;47.510;8.680;2024-02-15T14:32:55;6.25;;;3.17;;
55170;SDS011;41060;47.510;8.680;2024-02-15T14:35:29;15.88;;;3.08;;
55170;SDS011;41060;47.510;8.680;2024-02-15T14:38:00;5.88;;;3.20;;
55170;SDS011;41060;47.510;8.680;2024-02-15T14:40:31;5.07;;;3.33;;
55170;SDS011;41060;47.510;8.680;2024-02-15T14:42:58;7.80;;;2.75;;
55170;SDS011;41060;47.510;8.680;2024-02-15T14:45:26;5.43;;;3.10;;
55170;SDS011;41060;47.510;8.680;2024-02-15T14:47:52;4.53;;;2.65;;
55170;SDS011;41060;47.510;8.680;2024-02-15T14:50:21;4.60;;;2.38;;
55170;SDS011;41060;47.510;8.680;2024-02-15T14:52:49;4.15;;;2.22;;
55170;SDS011;41060;47.510;8.680;2024-02-15T14:55:19;4.97;;;2.85;;
55170;SDS011;41060;47.510;8.680;2024-02-15T14:57:47;4.95;;;2.55;;
55170;SDS011;41060;47.510;8.680;2024-02-15T15:00:15;4.30;;;2.80;;
55170;SDS011;41060;47.510;8.680;2024-02-15T15:02:47;4.72;;;2.88;;
55170;SDS011;41060;47.510;8.680;2024-02-15T15:05:14;5.03;;;3.30;;
55170;SDS011;41060;47.510;8.680;2024-02-15T15:08:00;5.22;;;3.15;;
55170;SDS011;41060;47.510;8.680;2024-02-15T15:10:45;6.97;;;2.72;;
55170;SDS011;41060;47.510;8.680;2024-02-15T15:13:30;3.88;;;2.67;;
55170;SDS011;41060;47.510;8.680;2024-02-15T15:15:58;5.90;;;3.28;;
55170;SDS011;41060;47.510;8.680;2024-02-15T15:18:25;3.65;;;2.45;;
55170;SDS011;41060;47.510;8.680;2024-02-15T15:20:53;4.78;;;2.67;;
55170;SDS011;41060;47.510;8.680;2024-02-15T15:23:21;5.10;;;2.67;;
55170;SDS011;41060;47.510;8.680;2024-02-15T15:25:48;4.20;;;2.25;;
55170;SDS011;41060;47.510;8.680;2024-02-15T15:28:16;5.30;;;2.85;;
55170;SDS011;41060;47.510;8.680;2024-02-15T15:30:43;8.00;;;3.90;;
55170;SDS011;41060;47.510;8.680;2024-02-15T15:33:13;8.43;;;4.18;;
55170;SDS011;41060;47.510;8.680;2024-02-15T15:35:42;8.10;;;3.92;;
55170;SDS011;41060;47.510;8.680;2024-02-15T15:38:09;6.20;;;3.03;;
55170;SDS011;41060;47.510;8.680;2024-02-15T15:40:37;5.80;;;3.30;;